Time;durP1;ratioP1;P1;durP2;ratioP2;P2;SDS_P1;SDS_P2;PMS_P1;PMS_P2;Temp;Humidity;BMP_temperature;BMP_pressure;BME280_temperature;BME280_humidity;BME280_pressure;Samples;Min_cycle;Max_cycle;Signal;HPM_P1;HPM_P2
2022/11/27 00:00:43;;;;;;;26.30;12.93;;;4.90;99.90;;;;;;4996917;28;20050;-63
2022/11/27 00:03:09;;;;;;;25.52;14.27;;;5.00;99.90;;;;;;4996797;28;20049;-62
2022/11/27 00:05:35;;;;;;;25.58;13.65;;;5.00;99.90;;;;;;4996737;28;20509;-62
2022/11/27 00:08:01;;;;;;;22.52;11.98;;;5.00;99.90;;;;;;4996319;28;20034;-62
2022/11/27 00:10:27;;;;;;;26.35;12.60;;;5.00;99.90;;;;;;4996553;28;20036;-62
2022/11/27 00:12:52;;;;;;;24.50;13.25;;;4.80;99.90;;;;;;4995303;28;20089;-62
2022/11/27 00:15:18;;;;;;;28.25;14.35;;;4.70;99.90;;;;;;4996489;28;20042;-63
2022/11/27 00:17:44;;;;;;;27.23;13.38;;;4.70;99.90;;;;;;4996671;28;20053;-62
2022/11/27 00:20:10;;;;;;;26.02;14.27;;;4.90;99.90;;;;;;4996500;28;20424;-62
2022/11/27 00:22:36;;;;;;;25.73;11.93;;;4.90;99.90;;;;;;4996322;28;20048;-62
2022/11/27 00:25:02;;;;;;;27.52;13.20;;;4.90;99.90;;;;;;4996425;28;20038;-62
2022/11/27 00:27:27;;;;;;;27.83;13.27;;;4.90;99.90;;;;;;4996443;28;20053;-62
2022/11/27 00:29:53;;;;;;;29.23;14.10;;;5.00;99.90;;;;;;4996147;28;20042;-62
2022/11/27 00:32:19;;;;;;;32.47;13.75;;;4.70;99.90;;;;;;4995524;28;20060;-62
2022/11/27 00:34:44;;;;;;;23.95;11.60;;;5.00;99.90;;;;;;4995030;28;20086;-63
2022/11/27 00:37:11;;;;;;;25.48;11.23;;;5.10;99.90;;;;;;4994575;28;20038;-64
2022/11/27 00:39:36;;;;;;;26.23;12.23;;;5.00;99.90;;;;;;4995247;28;20089;-62
2022/11/27 00:42:02;;;;;;;20.60;10.27;;;5.00;99.90;;;;;;4995827;28;20406;-63
2022/11/27 00:44:28;;;;;;;23.55;11.40;;;4.90;99.90;;;;;;4995894;28;20095;-62
2022/11/27 00:46:54;;;;;;;20.88;11.80;;;5.20;99.90;;;;;;4995776;28;20049;-63
2022/11/27 00:49:19;;;;;;;25.65;10.63;;;5.10;99.90;;;;;;4995762;28;20200;-64
2022/11/27 00:51:45;;;;;;;22.42;11.38;;;5.00;99.90;;;;;;4995571;28;20458;-62
2022/11/27 00:54:11;;;;;;;27.05;13.23;;;5.10;99.90;;;;;;4995828;28;20081;-62
2022/11/27 00:56:38;;;;;;;25.52;12.65;;;5.20;99.90;;;;;;4995736;28;20061;-63
2022/11/27 00:59:05;;;;;;;20.80;11.02;;;5.10;99.90;;;;;;4995715;28;20092;-62
2022/11/27 01:01:37;;;;;;;29.38;12.35;;;5.20;99.90;;;;;;4995899;28;20034;-62
2022/11/27 01:04:05;;;;;;;25.95;12.25;;;5.20;99.90;;;;;;4995633;28;20410;-62
2022/11/27 01:06:31;;;;;;;26.50;12.55;;;5.20;99.90;;;;;;4995884;28;20521;-62
2022/11/27 01:08:57;;;;;;;26.42;12.75;;;5.20;99.90;;;;;;4999296;28;20044;-63
2022/11/27 01:11:29;;;;;;;27.10;12.27;;;5.10;99.90;;;;;;4995641;28;20031;-62
2022/11/27 01:13:59;;;;;;;24.83;11.55;;;5.20;99.90;;;;;;4995617;28;20058;-62
2022/11/27 01:16:27;;;;;;;22.58;12.82;;;5.20;99.90;;;;;;4994319;28;20034;-62
2022/11/27 01:18:56;;;;;;;25.55;13.85;;;5.10;99.90;;;;;;4995362;28;20050;-63
2022/11/27 01:21:23;;;;;;;28.63;13.23;;;5.10;99.90;;;;;;4995335;28;20042;-63
2022/11/27 01:23:49;;;;;;;28.35;13.48;;;4.90;99.90;;;;;;5001323;28;20038;-63
2022/11/27 01:26:16;;;;;;;27.02;12.65;;;4.90;99.90;;;;;;5014194;28;20065;-62
2022/11/27 01:28:43;;;;;;;27.10;13.05;;;4.80;99.90;;;;;;5013645;28;20444;-62
2022/11/27 01:31:16;;;;;;;30.17;13.82;;;4.80;99.90;;;;;;5013999;28;20045;-62
2022/11/27 01:33:42;;;;;;;26.50;13.45;;;4.80;99.90;;;;;;5014794;28;20046;-62
2022/11/27 01:36:10;;;;;;;27.23;13.65;;;4.70;99.90;;;;;;5014686;28;20091;-62
2022/11/27 01:38:36;;;;;;;25.48;13.52;;;4.60;99.90;;;;;;5014530;28;20099;-62
2022/11/27 01:41:07;;;;;;;30.42;13.73;;;4.60;99.90;;;;;;5014588;28;20513;-62
2022/11/27 01:43:46;;;;;;;28.83;12.98;;;4.50;99.90;;;;;;5013970;28;20396;-62
2022/11/27 01:46:48;;;;;;;27.42;13.10;;;4.60;99.90;;;;;;5014717;28;20477;-62
2022/11/27 01:49:22;;;;;;;26.17;12.88;;;4.50;99.90;;;;;;5014572;28;20124;-62
2022/11/27 01:52:05;;;;;;;28.67;13.70;;;4.50;99.90;;;;;;5014541;28;20069;-62
2022/11/27 01:54:35;;;;;;;27.40;13.15;;;4.60;99.90;;;;;;5014569;28;20456;-62
2022/11/27 01:57:06;;;;;;;24.35;12.57;;;4.50;99.90;;;;;;5014540;28;20049;-62
2022/11/27 01:59:32;;;;;;;32.00;14.55;;;4.60;99.90;;;;;;5014231;28;20034;-63
2022/11/27 02:01:59;;;;;;;24.42;13.30;;;4.70;99.90;;;;;;5014294;28;20041;-62
2022/11/27 02:04:25;;;;;;;29.58;15.00;;;4.70;99.90;;;;;;5014311;28;20095;-62
2022/11/27 02:06:50;;;;;;;24.67;13.10;;;4.70;99.90;;;;;;5014319;28;20116;-62
2022/11/27 02:09:16;;;;;;;30.90;14.25;;;4.80;99.90;;;;;;5011624;28;20050;-62
2022/11/27 02:11:48;;;;;;;27.02;13.82;;;4.70;99.90;;;;;;5011176;28;20042;-62
2022/11/27 02:14:47;;;;;;;33.95;14.35;;;4.60;99.90;;;;;;5012154;28;20180;-62
2022/11/27 02:17:29;;;;;;;28.23;13.52;;;4.60;99.90;;;;;;5013664;28;20060;-63
2022/11/27 02:20:25;;;;;;;25.80;12.82;;;4.60;99.90;;;;;;5013147;28;20049;-63
2022/11/27 02:22:53;;;;;;;34.25;16.15;;;4.90;99.90;;;;;;5014193;28;20104;-62
2022/11/27 02:25:27;;;;;;;34.67;13.88;;;5.10;99.90;;;;;;5014215;28;20397;-63
2022/11/27 02:28:22;;;;;;;24.63;13.10;;;4.70;99.90;;;;;;5014082;28;20042;-62
2022/11/27 02:30:58;;;;;;;28.67;14.45;;;4.90;99.90;;;;;;5013897;28;20033;-63
2022/11/27 02:33:25;;;;;;;29.88;14.25;;;4.90;99.90;;;;;;5013982;28;20045;-62
2022/11/27 02:36:06;;;;;;;26.25;13.05;;;5.20;99.90;;;;;;5013848;28;20041;-62
2022/11/27 02:38:39;;;;;;;28.50;14.18;;;4.80;99.90;;;;;;5014381;28;20046;-62
2022/11/27 02:41:24;;;;;;;27.02;14.77;;;5.00;99.90;;;;;;5017949;28;20517;-62
2022/11/27 02:43:51;;;;;;;31.83;14.95;;;4.70;99.90;;;;;;5018001;28;20049;-63
2022/11/27 02:46:18;;;;;;;35.33;15.18;;;4.70;99.90;;;;;;5017682;28;20040;-62
2022/11/27 02:48:54;;;;;;;32.38;15.13;;;4.80;99.90;;;;;;5017861;28;20042;-62
2022/11/27 02:51:28;;;;;;;33.70;14.20;;;4.80;99.90;;;;;;5017835;28;20041;-62
2022/11/27 02:54:00;;;;;;;30.15;14.52;;;4.70;99.90;;;;;;5017731;28;20143;-62
2022/11/27 02:56:28;;;;;;;33.17;14.52;;;4.90;99.90;;;;;;5017831;28;20069;-62
2022/11/27 02:58:59;;;;;;;30.83;15.77;;;4.80;99.90;;;;;;5017486;28;20053;-62
2022/11/27 03:01:28;;;;;;;30.52;14.75;;;4.50;99.90;;;;;;5017570;28;20120;-62
2022/11/27 03:03:57;;;;;;;31.70;15.57;;;4.80;99.90;;;;;;5017451;28;20516;-63
2022/11/27 03:06:30;;;;;;;34.47;14.55;;;4.60;99.90;;;;;;5017592;28;20133;-63
2022/11/27 03:09:07;;;;;;;31.52;13.63;;;4.30;99.90;;;;;;5017476;28;20042;-62
2022/11/27 03:11:33;;;;;;;30.17;13.10;;;4.70;99.90;;;;;;5017486;28;20048;-62
2022/11/27 03:14:04;;;;;;;33.55;14.60;;;4.60;99.90;;;;;;5017014;28;20080;-62
2022/11/27 03:16:41;;;;;;;31.02;14.20;;;4.60;99.90;;;;;;5017261;28;20397;-63
2022/11/27 03:19:28;;;;;;;29.60;13.80;;;4.70;99.90;;;;;;5017273;28;20037;-62
2022/11/27 03:22:02;;;;;;;25.15;13.57;;;4.60;99.90;;;;;;5017217;28;20040;-62
2022/11/27 03:24:29;;;;;;;30.17;13.88;;;4.50;99.90;;;;;;5017023;28;20172;-62
2022/11/27 03:26:57;;;;;;;26.83;13.13;;;4.30;99.90;;;;;;5000877;28;20042;-62
2022/11/27 03:29:35;;;;;;;26.40;13.00;;;4.30;99.90;;;;;;4997392;28;20049;-62
2022/11/27 03:32:02;;;;;;;27.40;12.32;;;4.40;99.90;;;;;;4997321;28;20097;-62
2022/11/27 03:34:28;;;;;;;25.70;12.20;;;4.40;99.90;;;;;;4997418;28;20599;-63
2022/11/27 03:36:53;;;;;;;23.27;12.15;;;4.40;99.90;;;;;;4997633;28;20042;-62
2022/11/27 03:39:21;;;;;;;25.63;12.07;;;4.30;99.90;;;;;;4997152;28;20069;-62
2022/11/27 03:42:16;;;;;;;28.33;13.70;;;4.30;99.90;;;;;;4997226;28;20401;-62
2022/11/27 03:44:54;;;;;;;26.33;12.88;;;4.30;99.90;;;;;;4997076;28;20049;-62
2022/11/27 03:47:40;;;;;;;26.58;13.60;;;4.40;99.90;;;;;;4997308;28;20047;-62
2022/11/27 03:50:31;;;;;;;27.60;13.25;;;4.40;99.90;;;;;;5009586;28;20046;-62
2022/11/27 03:53:24;;;;;;;23.65;11.88;;;4.30;99.90;;;;;;5016409;28;20125;-62
2022/11/27 03:56:11;;;;;;;24.60;12.52;;;4.30;99.90;;;;;;5016592;28;20030;-62
2022/11/27 03:58:44;;;;;;;27.48;12.93;;;4.30;99.90;;;;;;5016397;28;20050;-62
2022/11/27 04:01:15;;;;;;;23.40;12.13;;;4.30;99.90;;;;;;5016285;28;20085;-62
2022/11/27 04:03:41;;;;;;;27.00;13.48;;;4.40;99.90;;;;;;5016501;28;20037;-62
2022/11/27 04:06:06;;;;;;;28.23;14.23;;;4.40;99.90;;;;;;5016444;28;20026;-62
2022/11/27 04:08:32;;;;;;;26.67;13.82;;;4.30;99.90;;;;;;5015053;28;20129;-62
2022/11/27 04:10:58;;;;;;;31.73;14.98;;;4.30;99.90;;;;;;5016345;28;20038;-62
2022/11/27 04:13:23;;;;;;;29.15;14.50;;;4.30;99.90;;;;;;5016258;28;20046;-62
2022/11/27 04:15:49;;;;;;;26.25;14.02;;;4.30;99.90;;;;;;5016080;28;20505;-63
2022/11/27 04:18:15;;;;;;;23.60;13.70;;;4.30;99.90;;;;;;5016168;28;20038;-62
2022/11/27 04:20:41;;;;;;;24.02;13.18;;;4.30;99.90;;;;;;5016089;28;20034;-62
2022/11/27 04:23:06;;;;;;;24.08;12.30;;;4.30;99.90;;;;;;5016029;28;20046;-62
2022/11/27 04:25:32;;;;;;;29.50;12.90;;;4.30;99.90;;;;;;5016105;28;20042;-62
2022/11/27 04:27:58;;;;;;;30.00;13.52;;;4.40;99.90;;;;;;5015945;28;20037;-62
2022/11/27 04:30:24;;;;;;;22.30;12.85;;;4.50;99.90;;;;;;5015717;28;20520;-62
2022/11/27 04:32:49;;;;;;;25.17;12.88;;;4.40;99.90;;;;;;5015916;28;20053;-62
2022/11/27 04:35:15;;;;;;;29.17;15.60;;;4.40;99.90;;;;;;5016032;28;20091;-62
2022/11/27 04:37:41;;;;;;;27.88;14.63;;;4.40;99.90;;;;;;5015922;28;20049;-62
2022/11/27 04:40:07;;;;;;;24.02;12.88;;;4.40;99.90;;;;;;5015742;28;20525;-62
2022/11/27 04:42:33;;;;;;;22.65;12.38;;;4.50;99.90;;;;;;5015726;28;20504;-62
2022/11/27 04:44:59;;;;;;;29.60;14.35;;;4.50;99.90;;;;;;5015487;28;20103;-62
2022/11/27 04:47:25;;;;;;;27.92;14.13;;;4.50;99.90;;;;;;5015650;28;20050;-62
2022/11/27 04:49:51;;;;;;;24.38;13.38;;;4.50;99.90;;;;;;5015507;28;20585;-62
2022/11/27 04:52:16;;;;;;;26.38;13.30;;;4.50;99.90;;;;;;5015395;28;20130;-62
2022/11/27 04:54:42;;;;;;;35.20;15.43;;;4.40;99.90;;;;;;5015456;28;20084;-62
2022/11/27 04:57:08;;;;;;;29.45;14.15;;;4.30;99.90;;;;;;5015472;28;20133;-62
2022/11/27 04:59:34;;;;;;;26.80;12.88;;;4.40;99.90;;;;;;5015154;28;20366;-62
2022/11/27 05:01:59;;;;;;;25.35;12.82;;;4.30;99.90;;;;;;5014290;28;20048;-62
2022/11/27 05:04:25;;;;;;;22.65;12.20;;;4.30;99.90;;;;;;5013856;28;20049;-62
2022/11/27 05:06:51;;;;;;;22.48;11.50;;;4.20;99.90;;;;;;5015197;28;20072;-62
2022/11/27 05:09:17;;;;;;;26.60;13.10;;;4.30;99.90;;;;;;5015171;28;20443;-62
2022/11/27 05:11:43;;;;;;;25.52;13.25;;;4.30;99.90;;;;;;5015071;28;20034;-62
2022/11/27 05:14:16;;;;;;;22.48;13.30;;;4.30;99.90;;;;;;5014903;28;20083;-62
2022/11/27 05:16:52;;;;;;;30.70;15.43;;;4.30;99.90;;;;;;5014984;28;20038;-62
2022/11/27 05:19:20;;;;;;;32.45;14.70;;;4.30;99.90;;;;;;5015081;28;20037;-62
2022/11/27 05:21:47;;;;;;;26.80;14.18;;;4.30;99.90;;;;;;5014974;28;20049;-62
2022/11/27 05:24:14;;;;;;;26.75;14.93;;;4.30;99.90;;;;;;5014864;28;20041;-63
2022/11/27 05:26:40;;;;;;;26.67;13.18;;;4.30;99.90;;;;;;5014662;28;20038;-62
2022/11/27 05:29:08;;;;;;;29.10;14.35;;;4.20;99.90;;;;;;5013510;28;20041;-62
2022/11/27 05:31:34;;;;;;;28.08;13.60;;;4.20;99.90;;;;;;5013561;28;20053;-62
2022/11/27 05:34:00;;;;;;;27.25;14.32;;;4.10;99.90;;;;;;5014588;28;20554;-62
2022/11/27 05:36:26;;;;;;;29.63;13.93;;;4.10;99.90;;;;;;5014638;28;20121;-62
2022/11/27 05:38:52;;;;;;;35.60;16.45;;;4.10;99.90;;;;;;5014652;28;20088;-62
2022/11/27 05:41:18;;;;;;;27.17;14.00;;;4.20;99.90;;;;;;5014467;28;20037;-62
2022/11/27 05:43:44;;;;;;;31.35;15.25;;;4.20;99.90;;;;;;5014597;28;20036;-62
2022/11/27 05:46:13;;;;;;;29.33;15.20;;;4.20;99.90;;;;;;5014520;28;20034;-63
2022/11/27 05:48:39;;;;;;;31.95;15.38;;;4.30;99.90;;;;;;4999344;28;20054;-62
2022/11/27 05:51:05;;;;;;;34.65;17.20;;;4.30;99.90;;;;;;4994730;28;20046;-62
2022/11/27 05:53:31;;;;;;;40.30;18.58;;;4.20;99.90;;;;;;4994825;28;20054;-62
2022/11/27 05:56:05;;;;;;;35.67;16.95;;;4.10;99.90;;;;;;4994880;28;20103;-62
2022/11/27 05:58:31;;;;;;;37.30;18.10;;;4.20;99.90;;;;;;4994853;28;20046;-62
2022/11/27 06:00:58;;;;;;;41.17;19.77;;;4.20;99.90;;;;;;4994957;28;20030;-62
2022/11/27 06:03:24;;;;;;;40.90;19.45;;;4.10;99.90;;;;;;5014134;28;20053;-62
2022/11/27 06:05:50;;;;;;;37.83;19.98;;;4.10;99.90;;;;;;5014347;28;20129;-62
2022/11/27 06:08:16;;;;;;;42.45;19.67;;;4.20;99.90;;;;;;5014417;28;20519;-62
2022/11/27 06:10:41;;;;;;;51.03;20.23;;;4.20;99.90;;;;;;5014312;28;20042;-62
2022/11/27 06:13:07;;;;;;;38.22;18.83;;;4.20;99.90;;;;;;5012522;28;20184;-62
2022/11/27 06:15:34;;;;;;;48.88;19.15;;;4.20;99.90;;;;;;5011227;28;20041;-62
2022/11/27 06:18:00;;;;;;;41.55;20.20;;;4.20;99.90;;;;;;5012212;28;20041;-63
2022/11/27 06:20:26;;;;;;;43.25;20.30;;;4.20;99.90;;;;;;5013616;28;20038;-62
2022/11/27 06:22:51;;;;;;;53.13;20.40;;;4.20;99.90;;;;;;5014135;28;20069;-62
2022/11/27 06:25:17;;;;;;;43.72;20.60;;;4.20;99.90;;;;;;5014159;28;20038;-62
2022/11/27 06:27:43;;;;;;;40.97;19.13;;;4.10;99.90;;;;;;5014165;28;20046;-62
2022/11/27 06:30:09;;;;;;;46.42;20.67;;;4.10;99.90;;;;;;5013934;28;20048;-63
2022/11/27 06:32:35;;;;;;;44.40;20.20;;;4.10;99.90;;;;;;5013834;28;20050;-62
2022/11/27 06:35:00;;;;;;;43.83;21.05;;;4.10;99.90;;;;;;5013977;28;20358;-62
2022/11/27 06:37:26;;;;;;;45.92;20.83;;;4.10;99.90;;;;;;5013869;28;20449;-62
2022/11/27 06:39:52;;;;;;;48.47;21.88;;;4.20;99.90;;;;;;5014169;28;20064;-62
2022/11/27 06:42:18;;;;;;;43.05;21.27;;;4.20;99.90;;;;;;5014088;28;20068;-62
2022/11/27 06:44:46;;;;;;;48.17;20.85;;;4.20;99.90;;;;;;5014135;28;20046;-62
2022/11/27 06:47:12;;;;;;;52.30;23.05;;;4.20;99.90;;;;;;5014145;28;20516;-62
2022/11/27 06:49:38;;;;;;;52.05;23.33;;;4.30;99.90;;;;;;5014017;28;20034;-62
2022/11/27 06:52:04;;;;;;;47.03;22.73;;;4.20;99.90;;;;;;5013795;28;20034;-62
2022/11/27 06:54:30;;;;;;;43.22;19.95;;;4.30;99.90;;;;;;5013918;28;20038;-62
2022/11/27 06:56:57;;;;;;;51.42;22.67;;;4.20;99.90;;;;;;5014002;28;20046;-62
2022/11/27 06:59:23;;;;;;;46.85;20.23;;;4.20;99.90;;;;;;5013882;28;20054;-62
2022/11/27 07:01:48;;;;;;;50.63;22.15;;;4.20;99.90;;;;;;5013840;28;20038;-62
2022/11/27 07:04:15;;;;;;;54.08;22.55;;;4.20;99.90;;;;;;5013810;28;20092;-62
2022/11/27 07:06:41;;;;;;;40.47;18.10;;;4.30;99.90;;;;;;5013626;28;20458;-62
2022/11/27 07:09:08;;;;;;;37.60;18.25;;;4.10;99.90;;;;;;5013681;28;20747;-62
2022/11/27 07:11:34;;;;;;;37.53;17.15;;;4.00;99.90;;;;;;5013537;28;20392;-63
2022/11/27 07:14:02;;;;;;;37.53;17.73;;;3.90;99.90;;;;;;5013685;28;20057;-62
2022/11/27 07:16:30;;;;;;;37.72;17.23;;;;;;;;;;5013636;28;20044;-63
2022/11/27 07:18:58;;;;;;;37.83;16.80;;;;;;;;;;5013479;28;20084;-63
2022/11/27 07:21:24;;;;;;;34.97;16.10;;;4.00;99.90;;;;;;5013308;28;20038;-63
2022/11/27 07:23:50;;;;;;;37.55;16.67;;;3.80;99.90;;;;;;5013535;28;20063;-63
2022/11/27 07:26:21;;;;;;;31.10;16.10;;;3.90;99.90;;;;;;5016399;28;20113;-63
2022/11/27 07:28:47;;;;;;;;;;;4.00;99.90;;;;;;5017564;28;20512;-63
2022/11/27 07:31:18;;;;;;;34.50;16.08;;;3.90;99.90;;;;;;5017070;28;19910;-63
2022/11/27 07:33:44;;;;;;;38.33;18.27;;;4.10;99.90;;;;;;5016539;28;20405;-63
2022/11/27 07:36:18;;;;;;;38.45;17.42;;;3.90;99.90;;;;;;5016633;28;20038;-63
2022/11/27 07:38:44;;;;;;;36.17;18.20;;;3.90;99.90;;;;;;5016713;28;20046;-63
2022/11/27 07:41:11;;;;;;;37.28;17.08;;;3.90;99.90;;;;;;5016679;28;20445;-64
2022/11/27 07:43:37;;;;;;;31.98;16.55;;;3.90;99.90;;;;;;5016635;28;20037;-62
2022/11/27 07:46:04;;;;;;;35.95;16.83;;;3.80;99.90;;;;;;5016237;28;20092;-67
2022/11/27 07:48:30;;;;;;;36.38;17.63;;;3.80;99.90;;;;;;5016590;28;20076;-63
2022/11/27 07:50:56;;;;;;;31.20;15.60;;;3.90;99.90;;;;;;5016628;28;20041;-68
2022/11/27 07:53:22;;;;;;;33.45;15.93;;;4.00;99.90;;;;;;5016599;28;20088;-63
2022/11/27 07:55:48;;;;;;;31.77;15.27;;;4.00;99.90;;;;;;5016729;28;20041;-63
2022/11/27 07:58:13;;;;;;;32.67;16.15;;;4.10;99.90;;;;;;5016671;28;20047;-62
2022/11/27 08:00:39;;;;;;;34.30;16.77;;;4.00;99.90;;;;;;5016634;28;20084;-62
2022/11/27 08:03:05;;;;;;;29.63;14.68;;;4.00;99.90;;;;;;5016358;28;20538;-62
2022/11/27 08:05:34;;;;;;;30.88;15.15;;;4.00;99.90;;;;;;5016142;28;20049;-64
2022/11/27 08:08:02;;;;;;;31.02;14.70;;;3.90;99.90;;;;;;5016442;28;20078;-62
2022/11/27 08:10:35;;;;;;;31.40;15.60;;;4.00;99.90;;;;;;5016394;28;20021;-62
2022/11/27 08:13:01;;;;;;;34.33;15.68;;;4.00;99.90;;;;;;5016294;28;20054;-62
2022/11/27 08:15:27;;;;;;;32.55;15.52;;;4.10;99.90;;;;;;5016113;28;20041;-62
2022/11/27 08:17:53;;;;;;;28.75;14.98;;;4.10;99.90;;;;;;5016281;28;20044;-62
2022/11/27 08:20:18;;;;;;;30.67;15.27;;;4.10;99.90;;;;;;5016188;28;20038;-62
2022/11/27 08:22:45;;;;;;;36.58;16.60;;;4.10;99.90;;;;;;5012192;28;20405;-62
2022/11/27 08:25:10;;;;;;;33.80;18.20;;;4.20;99.90;;;;;;5013106;28;20038;-62
2022/11/27 08:27:36;;;;;;;37.63;18.42;;;4.30;99.90;;;;;;5013667;28;20053;-62
2022/11/27 08:30:03;;;;;;;32.28;16.05;;;4.30;99.90;;;;;;4999193;28;20034;-62
2022/11/27 08:32:29;;;;;;;37.30;17.00;;;4.20;99.90;;;;;;4995500;28;20050;-62
2022/11/27 08:34:55;;;;;;;37.38;17.30;;;4.20;99.90;;;;;;4994721;28;20046;-62
2022/11/27 08:37:21;;;;;;;34.00;16.88;;;4.20;99.90;;;;;;4998844;28;20065;-62
2022/11/27 08:39:47;;;;;;;32.42;16.50;;;4.20;99.90;;;;;;5013841;28;20084;-62
2022/11/27 08:42:12;;;;;;;31.85;16.00;;;4.30;99.90;;;;;;5014905;28;20481;-61
2022/11/27 08:44:38;;;;;;;35.85;17.55;;;4.40;99.90;;;;;;5013429;28;20077;-62
2022/11/27 08:47:04;;;;;;;34.88;16.63;;;4.40;99.90;;;;;;5013582;28;20128;-62
2022/11/27 08:49:30;;;;;;;38.10;16.50;;;4.40;99.90;;;;;;5013105;28;20048;-62
2022/11/27 08:51:55;;;;;;;39.40;17.27;;;4.30;99.90;;;;;;5012882;28;20041;-62
2022/11/27 08:54:21;;;;;;;39.67;17.08;;;4.30;99.90;;;;;;5013533;28;20056;-62
2022/11/27 08:56:47;;;;;;;41.97;19.73;;;4.50;99.90;;;;;;5013116;28;20037;-62
2022/11/27 08:59:13;;;;;;;37.67;19.00;;;4.40;99.90;;;;;;5005472;28;20509;-63
2022/11/27 09:01:39;;;;;;;39.20;18.45;;;4.70;99.90;;;;;;4992691;28;20497;-63
2022/11/27 09:04:04;;;;;;;35.00;17.35;;;4.60;99.90;;;;;;4993184;28;20053;-62
2022/11/27 09:06:33;;;;;;;41.90;17.35;;;4.70;99.90;;;;;;4991280;28;20104;-62
2022/11/27 09:09:01;;;;;;;43.22;19.75;;;4.90;99.90;;;;;;4993606;28;20034;-62
2022/11/27 09:11:28;;;;;;;37.30;16.77;;;4.80;99.90;;;;;;4992520;28;20494;-62
2022/11/27 09:13:54;;;;;;;37.67;18.05;;;4.80;99.90;;;;;;4993335;28;20050;-62
2022/11/27 09:16:21;;;;;;;32.13;16.35;;;4.80;99.90;;;;;;4992853;28;20034;-62
2022/11/27 09:18:49;;;;;;;34.03;15.80;;;4.60;99.90;;;;;;4992981;28;20081;-62
2022/11/27 09:21:17;;;;;;;33.50;16.27;;;4.70;99.90;;;;;;4992538;28;20092;-62
2022/11/27 09:23:43;;;;;;;38.75;16.95;;;4.90;99.90;;;;;;4992605;28;20402;-62
2022/11/27 09:26:12;;;;;;;41.50;18.48;;;5.10;99.90;;;;;;4993328;28;20050;-62
2022/11/27 09:28:38;;;;;;;37.33;18.50;;;5.00;99.90;;;;;;4995366;28;20046;-62
2022/11/27 09:31:06;;;;;;;31.85;17.15;;;5.00;99.90;;;;;;4994406;28;20038;-62
2022/11/27 09:33:33;;;;;;;37.03;21.77;;;5.00;99.90;;;;;;4993082;28;20046;-62
2022/11/27 09:36:05;;;;;;;37.05;17.00;;;4.90;99.90;;;;;;4994648;28;20124;-62
2022/11/27 09:38:31;;;;;;;32.60;16.02;;;4.90;99.90;;;;;;4994626;28;20034;-62
2022/11/27 09:41:01;;;;;;;33.20;16.85;;;5.00;99.90;;;;;;4993259;28;20129;-62
2022/11/27 09:43:32;;;;;;;39.45;18.08;;;5.10;99.90;;;;;;4993355;28;20122;-62
2022/11/27 09:46:05;;;;;;;37.78;19.35;;;5.00;99.90;;;;;;4994950;28;20475;-62
2022/11/27 09:48:38;;;;;;;37.28;18.73;;;5.00;99.90;;;;;;4994521;28;20509;-62
2022/11/27 09:51:30;;;;;;;36.70;17.67;;;5.10;99.90;;;;;;4992670;28;20038;-62
2022/11/27 09:54:35;;;;;;;47.35;20.38;;;5.20;99.90;;;;;;4974518;28;20062;-62
2022/11/27 09:57:02;;;;;;;40.00;19.60;;;5.20;99.90;;;;;;4991821;28;20498;-62
2022/11/27 09:59:51;;;;;;;39.70;20.30;;;5.40;99.90;;;;;;4991924;28;20042;-62
2022/11/27 10:02:24;;;;;;;36.60;18.38;;;5.40;99.90;;;;;;4992501;28;20046;-62
2022/11/27 10:04:49;;;;;;;38.08;19.98;;;5.40;99.90;;;;;;4991345;28;20057;-63
2022/11/27 10:07:27;;;;;;;32.03;17.25;;;5.30;99.90;;;;;;4993214;28;20374;-62
2022/11/27 10:10:29;;;;;;;37.72;18.08;;;5.40;99.90;;;;;;4992942;28;20039;-62
2022/11/27 10:13:14;;;;;;;37.88;18.83;;;5.40;99.90;;;;;;4992933;28;20535;-62
2022/11/27 10:16:12;;;;;;;36.78;19.35;;;5.50;99.90;;;;;;4992543;28;20185;-62
2022/11/27 10:18:48;;;;;;;35.80;18.42;;;5.50;99.90;;;;;;4992711;28;20509;-62
2022/11/27 10:21:33;;;;;;;36.42;18.65;;;5.50;99.90;;;;;;4992366;28;20115;-62
2022/11/27 10:24:11;;;;;;;44.22;22.05;;;5.50;99.90;;;;;;4992750;28;20141;-62
2022/11/27 10:26:45;;;;;;;35.67;18.38;;;5.50;99.90;;;;;;4994305;28;20064;-62
2022/11/27 10:29:34;;;;;;;36.85;18.08;;;5.50;99.90;;;;;;4994357;28;20073;-62
2022/11/27 10:32:34;;;;;;;35.72;19.60;;;5.70;99.90;;;;;;4994242;28;20046;-64
2022/11/27 10:35:14;;;;;;;34.65;20.30;;;5.60;99.90;;;;;;5005990;28;20057;-63
2022/11/27 10:37:48;;;;;;;37.50;19.35;;;5.60;99.90;;;;;;5011069;28;20034;-63
2022/11/27 10:40:29;;;;;;;35.20;19.77;;;5.50;99.90;;;;;;5001996;28;20046;-62
2022/11/27 10:43:17;;;;;;;37.17;18.85;;;5.40;99.90;;;;;;4998693;28;20066;-63
2022/11/27 10:45:57;;;;;;;36.35;17.65;;;5.60;99.90;;;;;;5002900;28;20084;-62
2022/11/27 10:48:23;;;;;;;36.08;17.67;;;5.70;99.90;;;;;;5011085;28;20596;-62
2022/11/27 10:50:49;;;;;;;31.75;17.35;;;5.80;99.90;;;;;;5011141;28;20038;-62
2022/11/27 10:53:36;;;;;;;29.60;16.13;;;6.00;99.90;;;;;;5011986;28;20445;-63
2022/11/27 10:56:10;;;;;;;39.95;18.00;;;6.00;99.90;;;;;;5012360;28;20061;-63
2022/11/27 10:58:53;;;;;;;36.60;17.80;;;6.20;99.90;;;;;;5011734;28;20124;-63
2022/11/27 11:01:21;;;;;;;31.75;16.33;;;6.20;99.90;;;;;;5004798;28;20053;-63
2022/11/27 11:03:47;;;;;;;27.75;15.77;;;6.10;99.90;;;;;;5004873;28;20042;-63
2022/11/27 11:06:22;;;;;;;29.55;15.75;;;6.10;99.90;;;;;;5002510;28;20050;-63
2022/11/27 11:09:07;;;;;;;29.50;16.45;;;5.90;99.90;;;;;;5006134;28;20125;-63
2022/11/27 11:11:33;;;;;;;31.35;16.88;;;6.00;99.90;;;;;;5015431;28;20094;-63
2022/11/27 11:13:59;;;;;;;30.55;17.40;;;6.10;99.90;;;;;;5014388;28;20049;-63
2022/11/27 11:16:29;;;;;;;30.48;17.27;;;6.30;99.90;;;;;;5013671;28;20108;-64
2022/11/27 11:18:56;;;;;;;34.22;17.15;;;6.20;99.90;;;;;;4995580;28;20537;-63
2022/11/27 11:21:36;;;;;;;29.63;16.35;;;6.20;99.90;;;;;;4995128;28;20045;-64
2022/11/27 11:24:12;;;;;;;32.87;17.37;;;6.30;99.90;;;;;;4995454;28;20092;-63
2022/11/27 11:26:47;;;;;;;34.65;18.77;;;6.40;99.90;;;;;;4994967;28;20073;-63
2022/11/27 11:29:38;;;;;;;28.33;17.40;;;6.50;99.90;;;;;;4995133;28;20129;-64
2022/11/27 11:32:11;;;;;;;32.25;18.00;;;6.50;99.90;;;;;;4995472;28;20062;-63
2022/11/27 11:35:01;;;;;;;33.33;18.25;;;6.50;99.90;;;;;;4994957;28;20061;-63
2022/11/27 11:37:37;;;;;;;29.17;15.93;;;6.40;99.90;;;;;;4994105;28;20034;-64
2022/11/27 11:40:12;;;;;;;29.90;17.17;;;6.30;99.90;;;;;;4994947;28;20386;-63
2022/11/27 11:42:59;;;;;;;28.50;15.82;;;6.30;99.90;;;;;;4994633;28;20553;-63
2022/11/27 11:45:26;;;;;;;29.60;16.77;;;6.30;99.90;;;;;;4996329;28;20045;-63
2022/11/27 11:47:58;;;;;;;32.28;17.05;;;6.30;99.90;;;;;;4995217;28;20504;-63
2022/11/27 11:50:53;;;;;;;29.13;16.77;;;6.40;99.90;;;;;;4994096;28;20043;-63
2022/11/27 11:53:38;;;;;;;27.60;16.02;;;6.50;99.90;;;;;;4994460;28;20137;-63
2022/11/27 11:56:32;;;;;;;30.33;16.75;;;6.60;99.90;;;;;;4994787;28;20041;-64
2022/11/27 11:59:31;;;;;;;28.65;15.82;;;6.60;99.90;;;;;;4994668;28;20409;-63
2022/11/27 12:02:00;;;;;;;31.88;16.63;;;6.50;99.90;;;;;;4994582;28;20034;-63
2022/11/27 12:04:54;;;;;;;30.73;17.52;;;6.60;99.90;;;;;;5005806;28;20052;-63
2022/11/27 12:07:35;;;;;;;33.92;17.33;;;6.60;99.90;;;;;;4995371;28;20061;-63
2022/11/27 12:10:13;;;;;;;29.52;17.08;;;6.70;99.90;;;;;;4999130;28;20042;-62
2022/11/27 12:12:59;;;;;;;28.88;16.30;;;6.80;99.90;;;;;;4995722;28;20039;-62
2022/11/27 12:15:36;;;;;;;33.85;16.30;;;6.90;99.90;;;;;;4996163;28;20044;-62
2022/11/27 12:18:28;;;;;;;29.25;16.77;;;7.00;99.90;;;;;;4994557;28;20050;-62
2022/11/27 12:21:12;;;;;;;25.50;14.90;;;6.90;99.90;;;;;;4993863;28;20034;-62
2022/11/27 12:23:52;;;;;;;27.52;15.48;;;7.00;99.90;;;;;;5002966;28;20401;-62
2022/11/27 12:26:45;;;;;;;26.50;15.47;;;7.00;99.90;;;;;;5013361;28;20065;-62
2022/11/27 12:29:39;;;;;;;26.85;15.57;;;7.30;99.90;;;;;;5005980;28;20042;-62
2022/11/27 12:32:14;;;;;;;25.38;13.63;;;7.20;99.90;;;;;;5003997;28;20518;-62
2022/11/27 12:35:06;;;;;;;24.80;13.70;;;7.10;99.90;;;;;;5005111;28;20041;-62
2022/11/27 12:37:59;;;;;;;25.02;13.93;;;7.10;99.90;;;;;;5005885;28;20393;-62
2022/11/27 12:40:36;;;;;;;23.77;13.38;;;7.30;99.90;;;;;;5003236;28;20525;-62
2022/11/27 12:43:25;;;;;;;25.90;14.23;;;7.40;99.90;;;;;;5004226;28;20046;-62
2022/11/27 12:45:51;;;;;;;24.63;14.23;;;7.50;99.90;;;;;;5005625;28;20038;-63
2022/11/27 12:48:39;;;;;;;22.05;13.88;;;7.30;99.90;;;;;;5003181;28;20421;-63
2022/11/27 12:51:11;;;;;;;27.58;14.70;;;7.40;99.90;;;;;;5004667;28;20037;-63
2022/11/27 12:54:04;;;;;;;25.98;14.18;;;7.40;99.90;;;;;;5007635;28;20062;-64
2022/11/27 12:56:44;;;;;;;23.35;12.90;;;7.60;99.90;;;;;;5013060;28;20124;-62
2022/11/27 12:59:30;;;;;;;21.23;12.13;;;7.50;99.90;;;;;;5014514;28;20042;-62